Englesville, Pennsylvania
Current Conditions -  °F | °C
As of 11:54 AM on Saturday 25 Oct 2014 (Local Time) from KPTW Reporting Station
Clear Clear  
Wind Chill: 17°   Ceiling: Unl
Heat Index: 17°   Visibility: 10mi
Dew Point:   Wind: 8mph
Humidity: 46%   Direction: 270°W
Pressure: 29.87"   Gusts: NA
Location:  40.3481°N, 75.6818°W
Report Text: KPTW 251554Z AUTO 27007KT 10SM CLR 17/06 A2987 RMK AO2 SLP110 T01720056
Loading
Personal Weather Stations






























Interactive Weather Map
Tropical Storm Tracking
New forecast layout! Learn more

10-Day Weather Forecast

Advertisements
Track Severe Weather on mobile